Aérodrome :
LOGIN :

S'inscrire | Disclaimer

   EN    FR    IT 

 










Légende :    VFR   VFR Marginal   IFR   IFR Intensif   IFR Très Intensif
Visi : 
Plafond : 
>= 8 km
>= 3000ft
5 à 8 km
1000 à 3000 ft
1500m à 5 km
500 à 1000 ft
800 à 1500m
200 à 500 ft
< 800m
< 200 ft
Symboles :   Orages  Brouillard  Fortes neiges  Fortes précipitations  Vent > 20 kt
SIGMETs :   Divers  Orages  Givrage  Turbulence  Onde Orograph.  Cendres Volcan.






- Altitude de l'aérodrome : 1197 ft
- Code IATA : SPM


ETAD - Spangdahlem Ab

DERNIER METAR :
  • 190456Z AUTO 00000KT 0800 R23/0450V0800 FG FEW001 FEW032 SCT065 01/00 A2996 RMK AO2 SLP154 T00050004 $

METARs EXPIRÉS :
  • 190445Z AUTO 00000KT 0800 R23/0350V0600 FG FEW033 01/01 A2996 RMK AO2 SLP154 $
  • 190430Z AUTO 00000KT 0800 R23/0450V0700 FG FEW001 SCT016 02/02 A2995 RMK AO2 VIS 0800V8000 SLP149 $
  • 190424Z AUTO 00000KT 5000 R23/1500 BR BKN015 02/02 A2995 RMK AO2 CIG 002 RWY24 SLP149 $
  • 190411Z AUTO 00000KT 6000 BR OVC017 02/02 A2995 RMK AO2 CIG 016 RWY05 SLP149 $
  • 190356Z AUTO 00000KT 8000 BR OVC017 02/02 A2995 RMK AO2 OVC V BKN CIG 016 RWY05 SLP149 T00200020 $
  • 190336Z AUTO 18003KT 5000 BR BKN017 BKN075 02/01 A2994 RMK AO2 VIS 4000 RWY24 CIG 017V075 BKN017 V FEW SLP145 $
  • 190315Z AUTO 00000KT 1600 R23/0600VP1500 BR BKN075 01/01 A2994 RMK AO2 VIS 1600V3200 SLP145 $
  • 190311Z AUTO 00000KT 2400 R23/1100 BR BKN075 02/01 A2994 RMK AO2 VIS 2200V3200 SLP145 $
  • 190303Z AUTO 00000KT 2400 R23/1200 BR BKN070 02/02 A2994 RMK AO2 VIS 1400V2400 SLP145 $
  • 190256Z AUTO 00000KT 1400 R23/0650V1100 BR FEW001 BKN070 02/01 A2993 RMK AO2 SLP142 T00150014 52013 $
  • 190236Z AUTO 00000KT 1800 R23/0900 BR FEW002 SCT022 OVC070 02/01 A2993 RMK AO2 SLP142 $
  • 190219Z AUTO 00000KT 1200 R23/0650V0900 BR SCT004 SCT010 OVC021 02/01 A2992 RMK AO2 CIG 004V021 CIG 015 RWY05 SLP139 $

TAF TAF ETAD
Valide du 18 à 21h jusqu'au 20 à 03h UTC


182100Z 1821/2003 23009KT 8000 -RASN BR OVC003 620059 QNH2985INS
BECMG 1822/1823 27008KT 9999 NSW OVC005 620059 QNH2987INS
BECMG 1906/1907 22006KT 9999 BKN007 BKN065 610154 QNH2993INS
BECMG 1909/1910 25004KT 9999 BKN015 610154 QNH2995INS
BECMG 1912/1913 24004KT 9999 BKN020 610207 QNH2997INS
BECMG 1921/1922 VRB04KT 9999 BKN010 QNH3001INS TX04/1913Z TN00/1821Z LAST NO AMDS AFT 1821 NEXT 1905



MET'MAP, la Météo Aéronautique d'un coup d'oeil ! - Copyright ORBIFLY Décembre 2007 - Disclaimer

ORBIFLY MET'MAP TEAM :

Programmation & Développement : Alexandra Zaïnal
Conception & Développement : Baudouin d'Aumeries
Co-Programmation & Développement : Marc-Olivier Méhu
Soutien technique & logistique : Manuel Goepfert

Contact : metmap@orbifly.com




SOURCES & CREDITS :

   NOAA